createdAt,value
2023-02-02T00:00:15.090Z,81
2023-02-02T00:05:15.103Z,82
2023-02-02T00:10:15.099Z,82
2023-02-02T00:15:15.104Z,83
2023-02-02T00:20:15.092Z,84
2023-02-02T00:25:15.103Z,84
2023-02-02T00:30:15.089Z,85
2023-02-02T00:35:15.100Z,84
2023-02-02T00:40:15.096Z,84
2023-02-02T00:45:15.098Z,85
2023-02-02T00:50:15.094Z,85
2023-02-02T00:55:15.104Z,85
2023-02-02T01:00:15.092Z,85
2023-02-02T01:05:15.096Z,85
2023-02-02T01:10:15.098Z,85
2023-02-02T01:15:15.112Z,85
2023-02-02T01:20:15.105Z,85
2023-02-02T01:25:15.091Z,88
2023-02-02T01:30:15.103Z,89
2023-02-02T01:35:15.102Z,91
2023-02-02T01:40:15.112Z,92
2023-02-02T01:45:15.109Z,93
2023-02-02T01:50:15.093Z,94
2023-02-02T01:55:15.090Z,95
2023-02-02T02:00:15.090Z,95
2023-02-02T02:05:15.091Z,96
2023-02-02T02:10:15.085Z,96
2023-02-02T02:15:15.100Z,96
2023-02-02T02:20:15.083Z,96
2023-02-02T02:25:15.115Z,96
2023-02-02T02:30:15.089Z,96
2023-02-02T02:35:15.097Z,97
2023-02-02T02:40:15.091Z,96
2023-02-02T02:45:15.110Z,96
2023-02-02T02:50:15.104Z,96
2023-02-02T02:55:15.092Z,96
2023-02-02T03:00:15.091Z,97
2023-02-02T03:05:15.091Z,97
2023-02-02T03:10:15.085Z,97
2023-02-02T03:15:15.088Z,97
2023-02-02T03:20:15.103Z,97
2023-02-02T03:25:15.098Z,98
2023-02-02T03:30:15.101Z,98
2023-02-02T03:35:15.108Z,98
2023-02-02T03:40:15.103Z,99
2023-02-02T03:45:15.098Z,99
2023-02-02T03:50:15.093Z,99
2023-02-02T03:55:15.095Z,99
2023-02-02T04:00:15.100Z,99
2023-02-02T04:05:15.092Z,98
2023-02-02T04:10:15.085Z,97
2023-02-02T04:15:15.094Z,97
2023-02-02T04:20:15.112Z,97
2023-02-02T04:25:15.109Z,96
2023-02-02T04:30:15.110Z,96
2023-02-02T04:35:15.105Z,95
2023-02-02T04:40:15.114Z,97
2023-02-02T04:45:15.113Z,99
2023-02-02T04:50:15.105Z,99
2023-02-02T04:55:15.104Z,99
2023-02-02T05:00:15.097Z,99
2023-02-02T05:05:15.118Z,99
2023-02-02T05:10:15.095Z,99
2023-02-02T05:15:15.092Z,99
2023-02-02T05:20:15.100Z,99
2023-02-02T05:25:15.116Z,99
2023-02-02T05:30:15.083Z,99
2023-02-02T05:35:15.106Z,99
2023-02-02T05:40:15.108Z,99
2023-02-02T05:45:15.097Z,99
2023-02-02T05:50:15.105Z,99
2023-02-02T05:55:15.107Z,99
2023-02-02T06:00:15.097Z,99
2023-02-02T06:05:15.089Z,99
2023-02-02T06:10:15.094Z,99
2023-02-02T06:15:15.100Z,99
2023-02-02T06:20:15.096Z,99
2023-02-02T06:25:15.102Z,99
2023-02-02T06:30:15.086Z,99
2023-02-02T06:35:15.116Z,99
2023-02-02T06:40:15.103Z,99
2023-02-02T06:45:15.112Z,99
2023-02-02T06:50:15.106Z,98
2023-02-02T06:55:15.090Z,98
2023-02-02T07:00:15.145Z,98
2023-02-02T07:05:15.109Z,98
2023-02-02T07:11:09.586Z,97
2023-02-02T07:15:15.087Z,97
2023-02-02T07:20:15.090Z,97
2023-02-02T07:25:15.101Z,97
2023-02-02T07:30:15.095Z,97
2023-02-02T07:35:15.093Z,97
2023-02-02T07:40:15.100Z,97
2023-02-02T07:45:24.455Z,97
2023-02-02T07:50:15.101Z,97
2023-02-02T07:55:15.226Z,97
2023-02-02T08:00:15.119Z,96
2023-02-02T08:05:15.098Z,97
2023-02-02T08:10:15.097Z,97
2023-02-02T08:15:15.096Z,96
2023-02-02T08:20:15.089Z,96
2023-02-02T08:25:15.106Z,96
2023-02-02T08:30:15.097Z,96
2023-02-02T08:35:15.098Z,96
2023-02-02T08:40:15.144Z,96
2023-02-02T08:46:00.849Z,96
2023-02-02T08:50:15.088Z,95
2023-02-02T08:55:15.096Z,96
2023-02-02T09:00:15.100Z,95
2023-02-02T09:05:15.097Z,96
2023-02-02T09:10:15.088Z,95
2023-02-02T09:15:15.097Z,95
2023-02-02T09:20:15.093Z,95
2023-02-02T09:25:15.093Z,96
2023-02-02T09:30:15.104Z,96
2023-02-02T09:35:15.089Z,96
2023-02-02T09:40:15.097Z,95
2023-02-02T09:45:15.096Z,95
2023-02-02T09:50:15.100Z,94
2023-02-02T09:55:15.109Z,95
2023-02-02T10:00:15.105Z,94
2023-02-02T10:05:15.092Z,94
2023-02-02T10:10:17.081Z,94
2023-02-02T10:15:15.106Z,94
2023-02-02T10:20:15.099Z,94
2023-02-02T10:25:15.101Z,93
2023-02-02T10:30:15.100Z,94
2023-02-02T10:35:15.224Z,93
2023-02-02T10:40:15.083Z,93
2023-02-02T10:45:15.115Z,92
2023-02-02T10:50:15.085Z,93
2023-02-02T10:55:15.106Z,92
2023-02-02T11:00:15.093Z,92
2023-02-02T11:05:15.097Z,92
2023-02-02T11:10:15.115Z,92
2023-02-02T11:15:15.100Z,92
2023-02-02T11:20:15.122Z,91
2023-02-02T11:25:15.096Z,91
2023-02-02T11:30:15.088Z,91
2023-02-02T11:35:15.097Z,91
2023-02-02T11:40:15.107Z,91
2023-02-02T11:45:15.091Z,91
2023-02-02T11:50:15.102Z,90
2023-02-02T11:55:15.092Z,90
2023-02-02T12:00:15.094Z,91
2023-02-02T12:05:15.095Z,91
2023-02-02T12:10:15.095Z,91
2023-02-02T12:15:15.095Z,90
2023-02-02T12:20:15.087Z,91
2023-02-02T12:25:15.100Z,91
2023-02-02T12:30:15.092Z,90
2023-02-02T12:35:15.090Z,90
2023-02-02T12:40:15.106Z,89
2023-02-02T12:45:15.087Z,90
2023-02-02T12:50:15.107Z,90
2023-02-02T12:55:15.119Z,90
2023-02-02T13:00:15.116Z,90
2023-02-02T13:05:15.120Z,90
2023-02-02T13:10:15.122Z,90
2023-02-02T13:15:15.243Z,90
2023-02-02T13:20:15.121Z,90
2023-02-02T13:25:15.113Z,90
2023-02-02T13:30:15.107Z,91
2023-02-02T13:35:15.140Z,92
2023-02-02T13:40:15.126Z,93
2023-02-02T13:45:15.102Z,93
2023-02-02T13:50:15.116Z,94
2023-02-02T13:55:15.129Z,93
2023-02-02T14:00:15.113Z,93
2023-02-02T14:05:15.118Z,93
2023-02-02T14:10:15.149Z,93
2023-02-02T14:15:15.247Z,93
2023-02-02T14:20:15.111Z,93
2023-02-02T14:25:15.105Z,93
2023-02-02T14:30:15.094Z,93
2023-02-02T14:35:15.111Z,93
2023-02-02T14:40:15.098Z,93
2023-02-02T14:45:15.105Z,93
2023-02-02T14:50:15.096Z,94
2023-02-02T14:55:15.104Z,93
2023-02-02T15:00:15.094Z,94
2023-02-02T15:05:15.103Z,94
2023-02-02T15:10:15.085Z,94
2023-02-02T15:15:15.095Z,94
2023-02-02T15:20:15.085Z,95
2023-02-02T15:25:15.084Z,95
2023-02-02T15:30:17.029Z,96
2023-02-02T15:35:15.081Z,96
2023-02-02T15:40:15.101Z,96
2023-02-02T15:45:15.079Z,96
2023-02-02T15:50:15.076Z,96
2023-02-02T15:55:15.072Z,96
2023-02-02T16:00:15.062Z,96
2023-02-02T16:05:15.075Z,96
2023-02-02T16:10:15.073Z,96
2023-02-02T16:15:15.067Z,96
2023-02-02T16:20:15.090Z,96
2023-02-02T16:25:15.094Z,96
2023-02-02T16:30:15.087Z,97
2023-02-02T16:35:15.089Z,97
2023-02-02T16:40:15.084Z,97
2023-02-02T16:45:15.084Z,96
2023-02-02T16:50:15.079Z,96
2023-02-02T16:55:15.102Z,97
2023-02-02T17:00:15.096Z,97
2023-02-02T17:05:15.088Z,97
2023-02-02T17:10:15.131Z,96
2023-02-02T17:15:15.093Z,97
2023-02-02T17:20:15.098Z,97
2023-02-02T17:25:15.111Z,97
2023-02-02T17:30:15.099Z,98
2023-02-02T17:35:15.096Z,97
2023-02-02T17:40:15.101Z,98
2023-02-02T17:45:15.101Z,98
2023-02-02T17:50:15.105Z,97
2023-02-02T17:55:15.098Z,97
2023-02-02T18:00:15.112Z,97
2023-02-02T18:05:15.104Z,97
2023-02-02T18:10:15.100Z,98
2023-02-02T18:15:15.108Z,98
2023-02-02T18:20:15.104Z,98
2023-02-02T18:25:15.116Z,98
2023-02-02T18:30:15.117Z,98
2023-02-02T18:35:15.118Z,98
2023-02-02T18:40:15.104Z,97
2023-02-02T18:45:15.114Z,96
2023-02-02T18:50:15.107Z,96
2023-02-02T18:55:15.124Z,96
2023-02-02T19:00:15.096Z,96
2023-02-02T19:05:15.107Z,95
2023-02-02T19:10:15.102Z,95
2023-02-02T19:15:15.105Z,94
2023-02-02T19:20:15.097Z,94
2023-02-02T19:25:15.095Z,94
2023-02-02T19:30:15.098Z,94
2023-02-02T19:35:15.108Z,93
2023-02-02T19:40:15.119Z,93
2023-02-02T19:45:15.104Z,93
2023-02-02T19:50:15.104Z,93
2023-02-02T19:55:15.103Z,93
2023-02-02T20:00:15.103Z,92
2023-02-02T20:05:15.113Z,92
2023-02-02T20:10:15.102Z,92
2023-02-02T20:15:15.111Z,91
2023-02-02T20:20:15.102Z,91
2023-02-02T20:25:15.098Z,91
2023-02-02T20:30:15.105Z,90
2023-02-02T20:35:15.102Z,90
2023-02-02T20:40:15.093Z,90
2023-02-02T20:45:15.114Z,89
2023-02-02T20:50:15.110Z,89
2023-02-02T20:55:15.109Z,89
2023-02-02T21:00:15.112Z,89
2023-02-02T21:05:15.093Z,89
2023-02-02T21:10:15.105Z,88
2023-02-02T21:15:15.102Z,89
2023-02-02T21:20:15.101Z,89
2023-02-02T21:25:15.105Z,89
2023-02-02T21:30:15.102Z,89
2023-02-02T21:35:15.210Z,88
2023-02-02T21:40:15.130Z,89
2023-02-02T21:45:15.102Z,89
2023-02-02T21:50:15.116Z,89
2023-02-02T21:55:15.110Z,89
2023-02-02T22:00:15.103Z,89
2023-02-02T22:05:15.115Z,90
2023-02-02T22:10:15.134Z,90
2023-02-02T22:15:15.096Z,91
2023-02-02T22:20:15.136Z,91
2023-02-02T22:25:15.097Z,92
2023-02-02T22:30:15.105Z,91
2023-02-02T22:35:15.108Z,91
2023-02-02T22:40:15.099Z,92
2023-02-02T22:45:15.103Z,91
2023-02-02T22:50:15.099Z,92
2023-02-02T22:55:15.098Z,92
2023-02-02T23:00:15.096Z,93
2023-02-02T23:05:15.110Z,94
2023-02-02T23:10:15.128Z,94
2023-02-02T23:15:15.121Z,95
2023-02-02T23:20:15.100Z,95
2023-02-02T23:25:15.099Z,95
2023-02-02T23:30:15.136Z,95
2023-02-02T23:35:15.116Z,95
2023-02-02T23:40:15.112Z,96
2023-02-02T23:45:16.388Z,95
2023-02-02T23:50:15.103Z,95
2023-02-02T23:55:15.116Z,96
